Time;durP1;ratioP1;P1;durP2;ratioP2;P2;SDS_P1;SDS_P2;PMS_P1;PMS_P2;Temp;Humidity;BMP_temperature;BMP_pressure;BME280_temperature;BME280_humidity;BME280_pressure;Samples;Min_cycle;Max_cycle;Signal;HPM_P1;HPM_P2
2022/09/12 00:00:24;;;;;;;8.32;6.03;;;;;;;;;;6198875;23;20204;-91
2022/09/12 00:03:39;;;;;;;10.60;5.90;;;;;;;;;;6198729;23;20207;-90
2022/09/12 00:06:53;;;;;;;9.30;5.18;;;;;;;;;;6179284;23;20168;-90
2022/09/12 00:09:58;;;;;;;10.20;5.22;;;;;;;;;;6197974;23;20164;-89
2022/09/12 00:13:05;;;;;;;9.13;5.30;;;;;;;;;;6195247;23;20195;-90
2022/09/12 00:16:15;;;;;;;15.02;5.05;;;;;;;;;;6196867;23;20167;-89
2022/09/12 00:19:20;;;;;;;12.25;5.30;;;;;;;;;;6178263;23;20600;-89
2022/09/12 00:22:25;;;;;;;8.05;5.88;;;;;;;;;;6198615;23;20167;-90
2022/09/12 00:25:31;;;;;;;9.02;5.85;;;;;;;;;;6193880;23;20167;-91
2022/09/12 00:28:50;;;;;;;17.60;5.82;;;;;;;;;;6176478;23;20168;-89
2022/09/12 00:32:08;;;;;;;9.10;5.30;;;;;;;;;;6178415;23;20200;-89
2022/09/12 00:35:18;;;;;;;10.40;5.15;;;;;;;;;;6196048;23;20176;-90
2022/09/12 00:38:32;;;;;;;7.93;5.20;;;;;;;;;;6195828;23;20160;-91
2022/09/12 00:41:40;;;;;;;9.77;5.70;;;;;;;;;;6176805;23;20307;-90
2022/09/12 00:44:49;;;;;;;9.48;5.38;;;;;;;;;;6196217;23;20247;-89
2022/09/12 00:48:02;;;;;;;7.05;5.13;;;;;;;;;;6195986;23;20254;-90
2022/09/12 00:51:07;;;;;;;8.85;5.13;;;;;;;;;;6195196;23;20255;-90
2022/09/12 00:54:16;;;;;;;8.80;5.85;;;;;;;;;;6197286;23;20180;-88
2022/09/12 00:57:22;;;;;;;11.00;5.68;;;;;;;;;;6178646;23;20168;-90
2022/09/12 01:00:29;;;;;;;8.98;5.63;;;;;;;;;;6198799;23;20196;-90
2022/09/12 01:03:35;;;;;;;9.98;5.47;;;;;;;;;;6182070;23;20262;-91
2022/09/12 01:06:42;;;;;;;14.45;6.50;;;;;;;;;;6180104;23;20501;-89
2022/09/12 01:09:47;;;;;;;9.75;5.68;;;;;;;;;;6197300;23;20204;-89
2022/09/12 01:12:52;;;;;;;12.07;6.90;;;;;;;;;;6197981;23;20191;-89
2022/09/12 01:15:59;;;;;;;9.38;5.55;;;;;;;;;;6196555;23;20506;-92
2022/09/12 01:19:13;;;;;;;11.65;5.57;;;;;;;;;;6197155;23;20147;-90
2022/09/12 01:22:27;;;;;;;8.77;5.40;;;;;;;;;;6196066;23;20252;-91
2022/09/12 01:25:36;;;;;;;13.40;6.25;;;;;;;;;;6179528;23;20239;-90
2022/09/12 01:28:57;;;;;;;15.18;6.57;;;;;;;;;;6196504;23;20165;-91
2022/09/12 01:32:06;;;;;;;11.88;5.13;;;;;;;;;;6199188;23;20191;-89
2022/09/12 01:35:15;;;;;;;9.35;5.72;;;;;;;;;;6198254;23;20242;-92
2022/09/12 01:38:25;;;;;;;13.90;6.13;;;;;;;;;;6198103;23;20171;-90
2022/09/12 01:41:33;;;;;;;13.63;5.95;;;;;;;;;;6197482;23;20176;-91
2022/09/12 01:44:41;;;;;;;9.35;6.20;;;;;;;;;;6196796;23;20208;-91
2022/09/12 01:47:51;;;;;;;12.63;6.35;;;;;;;;;;6197947;23;20172;-89
2022/09/12 01:51:00;;;;;;;13.30;6.63;;;;;;;;;;6197713;23;20164;-90
2022/09/12 01:54:07;;;;;;;10.43;6.28;;;;;;;;;;6196179;23;20168;-91
2022/09/12 01:57:15;;;;;;;17.63;6.82;;;;;;;;;;6196843;23;20233;-91
2022/09/12 02:00:21;;;;;;;14.48;6.63;;;;;;;;;;6197943;23;20272;-88
2022/09/12 02:03:31;;;;;;;14.68;7.43;;;;;;;;;;6197015;23;20243;-90
2022/09/12 02:06:40;;;;;;;11.45;7.20;;;;;;;;;;6195953;23;20176;-90
2022/09/12 02:09:47;;;;;;;16.55;7.13;;;;;;;;;;6198526;23;20156;-90
2022/09/12 02:12:54;;;;;;;10.88;7.32;;;;;;;;;;6198239;23;20251;-90
2022/09/12 02:16:04;;;;;;;13.30;7.40;;;;;;;;;;6197640;23;20168;-90
2022/09/12 02:19:13;;;;;;;14.10;7.32;;;;;;;;;;6196968;23;20252;-91
2022/09/12 02:22:20;;;;;;;11.77;7.80;;;;;;;;;;6196024;23;20160;-90
2022/09/12 02:25:26;;;;;;;15.57;8.20;;;;;;;;;;6197442;23;20228;-90
2022/09/12 02:28:34;;;;;;;16.92;8.45;;;;;;;;;;6182271;23;20501;-89
2022/09/12 02:31:43;;;;;;;18.15;8.60;;;;;;;;;;6197187;23;20167;-89
2022/09/12 02:34:54;;;;;;;19.55;9.48;;;;;;;;;;6199965;23;20175;-89
2022/09/12 02:38:01;;;;;;;16.70;9.05;;;;;;;;;;6196317;23;20168;-90
2022/09/12 02:41:07;;;;;;;19.90;8.73;;;;;;;;;;6198619;23;20172;-90
2022/09/12 02:44:12;;;;;;;20.25;9.50;;;;;;;;;;6197611;23;20253;-92
2022/09/12 02:48:00;;;;;;;17.05;9.43;;;;;;;;;;6196111;23;20176;-86
2022/09/12 02:51:07;;;;;;;22.70;10.05;;;;;;;;;;6198209;23;20168;-91
2022/09/12 02:54:13;;;;;;;38.30;10.95;;;;;;;;;;6198175;23;20243;-89
2022/09/12 02:57:19;;;;;;;17.95;10.55;;;;;;;;;;6180695;23;20171;-89
2022/09/12 03:00:25;;;;;;;25.65;10.77;;;;;;;;;;6196171;23;20642;-89
2022/09/12 03:03:41;;;;;;;20.80;10.65;;;;;;;;;;6196224;23;20191;-87
2022/09/12 03:06:51;;;;;;;18.85;10.00;;;;;;;;;;6180587;23;20168;-90
2022/09/12 03:09:59;;;;;;;23.10;10.38;;;;;;;;;;6198466;23;20233;-89
2022/09/12 03:13:09;;;;;;;32.55;10.48;;;;;;;;;;6198776;23;20711;-89
2022/09/12 03:16:17;;;;;;;81.68;12.32;;;;;;;;;;6199182;23;20168;-90
2022/09/12 03:19:26;;;;;;;26.75;11.32;;;;;;;;;;6197919;23;20172;-90
2022/09/12 03:22:38;;;;;;;48.33;11.18;;;;;;;;;;6180862;23;20186;-88
2022/09/12 03:25:44;;;;;;;25.90;9.98;;;;;;;;;;6199003;23;20168;-90
2022/09/12 03:28:50;;;;;;;21.02;9.82;;;;;;;;;;6198579;23;20288;-89
2022/09/12 03:31:56;;;;;;;33.05;10.95;;;;;;;;;;6199741;23;20171;-90
2022/09/12 03:35:01;;;;;;;23.13;10.55;;;;;;;;;;6198866;23;20249;-89
2022/09/12 03:38:08;;;;;;;25.98;11.02;;;;;;;;;;6198728;23;20167;-89
2022/09/12 03:41:13;;;;;;;26.55;11.75;;;;;;;;;;6182094;23;20505;-89
2022/09/12 03:44:18;;;;;;;44.78;12.27;;;;;;;;;;6197999;23;20171;-90
2022/09/12 03:47:23;;;;;;;23.90;11.85;;;;;;;;;;6197215;23;20176;-87
2022/09/12 03:50:28;;;;;;;37.40;10.25;;;;;;;;;;6198702;23;20172;-88
2022/09/12 03:53:38;;;;;;;42.75;11.93;;;;;;;;;;6197255;23;20235;-89
2022/09/12 03:56:43;;;;;;;27.25;11.95;;;;;;;;;;6198489;23;20229;-90
2022/09/12 03:59:49;;;;;;;34.42;12.05;;;;;;;;;;6199539;23;20163;-90
2022/09/12 04:02:56;;;;;;;32.45;11.65;;;;;;;;;;6199308;23;20180;-91
2022/09/12 04:06:01;;;;;;;29.90;12.40;;;;;;;;;;6199754;23;20152;-88
2022/09/12 04:09:08;;;;;;;36.80;12.77;;;;;;;;;;6182384;23;20221;-90
2022/09/12 04:12:13;;;;;;;34.85;13.50;;;;;;;;;;6198905;23;20167;-88
2022/09/12 04:15:18;;;;;;;28.90;13.30;;;;;;;;;;6200406;23;20171;-88
2022/09/12 04:18:24;;;;;;;31.52;13.55;;;;;;;;;;6181959;23;20797;-92
2022/09/12 04:21:29;;;;;;;35.72;12.95;;;;;;;;;;6197930;23;20167;-88
2022/09/12 04:24:35;;;;;;;27.58;12.40;;;;;;;;;;6199699;23;20171;-90
2022/09/12 04:27:40;;;;;;;27.77;12.40;;;;;;;;;;6199454;23;20314;-89
2022/09/12 04:30:46;;;;;;;22.23;12.23;;;;;;;;;;6198325;23;20636;-88
2022/09/12 04:33:54;;;;;;;28.58;12.48;;;;;;;;;;6199043;23;20278;-89
2022/09/12 04:36:59;;;;;;;23.20;12.10;;;;;;;;;;6179982;23;20171;-89
2022/09/12 04:40:06;;;;;;;28.58;12.25;;;;;;;;;;6199269;23;20152;-89
2022/09/12 04:43:12;;;;;;;28.42;13.20;;;;;;;;;;6180743;23;20175;-89
2022/09/12 04:46:19;;;;;;;30.15;13.00;;;;;;;;;;6198466;23;20167;-90
2022/09/12 04:49:24;;;;;;;26.98;13.57;;;;;;;;;;6198875;23;20171;-90
2022/09/12 04:52:29;;;;;;;25.80;13.20;;;;;;;;;;6197859;23;20162;-89
2022/09/12 04:55:36;;;;;;;29.38;13.75;;;;;;;;;;6198859;23;20160;-88
2022/09/12 04:58:41;;;;;;;26.42;13.23;;;;;;;;;;6198044;23;20171;-91
2022/09/12 05:01:47;;;;;;;22.30;12.40;;;;;;;;;;6199555;23;20175;-89
2022/09/12 05:04:53;;;;;;;23.00;12.07;;;;;;;;;;6198739;23;20203;-89
2022/09/12 05:08:01;;;;;;;26.70;13.40;;;;;;;;;;6198517;23;20235;-89
2022/09/12 05:11:09;;;;;;;23.92;12.43;;;;;;;;;;6180074;23;20155;-90
2022/09/12 05:14:14;;;;;;;22.08;12.48;;;;;;;;;;6200094;23;20176;-90
2022/09/12 05:17:20;;;;;;;23.92;12.52;;;;;;;;;;6183385;23;20171;-91
2022/09/12 05:20:25;;;;;;;22.65;11.90;;;;;;;;;;6201701;23;20219;-89
2022/09/12 05:23:30;;;;;;;23.13;12.88;;;;;;;;;;6199325;23;20171;-91
2022/09/12 05:26:37;;;;;;;23.80;12.73;;;;;;;;;;6198182;23;20168;-90
2022/09/12 05:29:42;;;;;;;25.00;13.48;;;;;;;;;;6183030;23;20156;-88
2022/09/12 05:32:48;;;;;;;26.83;12.57;;;;;;;;;;6198766;23;20167;-90
2022/09/12 05:35:53;;;;;;;26.33;13.57;;;;;;;;;;6200429;23;20167;-89
2022/09/12 05:39:00;;;;;;;29.73;13.45;;;;;;;;;;6199397;23;20232;-91
2022/09/12 05:42:08;;;;;;;26.38;13.77;;;;;;;;;;6180146;23;20180;-88
2022/09/12 05:45:13;;;;;;;26.23;13.70;;;;;;;;;;6183408;23;20156;-89
2022/09/12 05:48:57;;;;;;;28.33;13.55;;;;;;;;;;6199480;23;20172;-88
2022/09/12 05:52:04;;;;;;;28.63;14.05;;;;;;;;;;6207054;23;20584;-93
2022/09/12 05:55:11;;;;;;;27.40;13.88;;;;;;;;;;6201163;23;20200;-90
2022/09/12 05:58:19;;;;;;;28.10;13.95;;;;;;;;;;6182102;23;20159;-92
2022/09/12 06:01:24;;;;;;;25.92;13.32;;;;;;;;;;6196354;23;20168;-89
2022/09/12 06:04:30;;;;;;;23.45;12.15;;;;;;;;;;6197863;23;20186;-89
2022/09/12 06:07:37;;;;;;;22.77;12.45;;;;;;;;;;6201507;23;20168;-92
2022/09/12 06:10:42;;;;;;;22.42;12.02;;;;;;;;;;6181499;23;20243;-91
2022/09/12 06:13:49;;;;;;;20.38;11.50;;;;;;;;;;6181598;23;20195;-87
2022/09/12 06:16:55;;;;;;;21.30;11.50;;;;;;;;;;6197204;23;20195;-89
2022/09/12 06:20:09;;;;;;;23.08;11.48;;;;;;;;;;6199776;23;20205;-90
2022/09/12 06:23:18;;;;;;;21.70;11.23;;;;;;;;;;6179696;23;20176;-89
2022/09/12 06:26:24;;;;;;;24.80;11.73;;;;;;;;;;6198752;23;20171;-90
2022/09/12 06:29:31;;;;;;;19.70;11.23;;;;;;;;;;6198192;23;20168;-89
2022/09/12 06:32:37;;;;;;;22.25;11.82;;;;;;;;;;6196595;23;20168;-90
2022/09/12 06:35:42;;;;;;;19.15;11.15;;;;;;;;;;6198646;23;20180;-88
2022/09/12 06:38:47;;;;;;;19.20;11.38;;;;;;;;;;6180426;23;20168;-90
2022/09/12 06:41:53;;;;;;;20.55;10.98;;;;;;;;;;6198831;23;20172;-91
2022/09/12 06:45:15;;;;;;;19.42;11.07;;;;;;;;;;6197617;23;20258;-89
2022/09/12 06:48:26;;;;;;;19.70;10.57;;;;;;;;;;6195598;23;20240;-90
2022/09/12 06:51:31;;;;;;;22.83;12.15;;;;;;;;;;6198253;23;20172;-89
2022/09/12 06:54:39;;;;;;;22.63;11.13;;;;;;;;;;6200215;23;20339;-87
2022/09/12 06:57:44;;;;;;;22.13;11.52;;;;;;;;;;6198538;23;20172;-89
2022/09/12 07:00:50;;;;;;;22.45;11.73;;;;;;;;;;6197417;23;20171;-90
2022/09/12 07:03:56;;;;;;;19.92;11.00;;;;;;;;;;6177961;23;20254;-91
2022/09/12 07:07:01;;;;;;;20.30;11.45;;;;;;;;;;6198098;23;20155;-91
2022/09/12 07:10:07;;;;;;;23.70;12.27;;;;;;;;;;6197859;23;20168;-91
2022/09/12 07:13:12;;;;;;;24.65;12.07;;;;;;;;;;6179857;23;20168;-90
2022/09/12 07:16:20;;;;;;;20.20;10.68;;;;;;;;;;6196939;23;20171;-90
2022/09/12 07:19:25;;;;;;;19.70;10.18;;;;;;;;;;6195801;23;20167;-90
2022/09/12 07:22:30;;;;;;;23.02;11.00;;;;;;;;;;6197728;23;20156;-87
2022/09/12 07:25:36;;;;;;;19.63;10.10;;;;;;;;;;6200710;23;20168;-90
2022/09/12 07:28:41;;;;;;;20.70;10.95;;;;;;;;;;6201815;23;20164;-89
2022/09/12 07:31:48;;;;;;;19.58;10.93;;;;;;;;;;6183743;23;20172;-89
2022/09/12 07:34:54;;;;;;;19.63;10.20;;;;;;;;;;6200155;23;20266;-88
2022/09/12 07:37:59;;;;;;;20.55;11.70;;;;;;;;;;6200192;23;20163;-90
2022/09/12 07:41:11;;;;;;;27.92;16.00;;;;;;;;;;6197966;23;20195;-87
2022/09/12 07:44:20;;;;;;;17.08;9.75;;;;;;;;;;6180756;23;20168;-91
2022/09/12 07:47:41;;;;;;;24.60;11.77;;;;;;;;;;6181110;23;20233;-89
2022/09/12 07:50:57;;;;;;;20.08;10.40;;;;;;;;;;6183263;23;20180;-89
2022/09/12 07:54:03;;;;;;;19.40;10.13;;;;;;;;;;6199577;23;20243;-89
2022/09/12 07:57:09;;;;;;;16.90;9.13;;;;;;;;;;6199305;23;20156;-90
2022/09/12 08:00:15;;;;;;;16.02;9.13;;;;;;;;;;6202004;23;20482;-91
2022/09/12 08:03:27;;;;;;;17.15;9.45;;;;;;;;;;6184440;23;20525;-90
2022/09/12 08:06:36;;;;;;;15.20;9.52;;;;;;;;;;6183024;23;20175;-90
2022/09/12 08:09:42;;;;;;;17.23;9.68;;;;;;;;;;6199001;23;20707;-90
2022/09/12 08:12:47;;;;;;;17.13;10.00;;;;;;;;;;6199996;23;20148;-89
2022/09/12 08:15:52;;;;;;;19.10;9.90;;;;;;;;;;6197839;23;20168;-90
2022/09/12 08:18:57;;;;;;;20.65;10.07;;;;;;;;;;6199049;23;20167;-89
2022/09/12 08:22:04;;;;;;;16.45;9.05;;;;;;;;;;6199835;23;20175;-90
2022/09/12 08:25:09;;;;;;;19.15;10.70;;;;;;;;;;6198452;23;20160;-89
2022/09/12 08:28:15;;;;;;;15.30;9.32;;;;;;;;;;6199159;23;20168;-88
2022/09/12 08:31:22;;;;;;;14.88;9.38;;;;;;;;;;6202323;23;20172;-88
2022/09/12 08:34:27;;;;;;;18.55;10.00;;;;;;;;;;6201437;23;20192;-87
2022/09/12 08:37:34;;;;;;;14.95;9.48;;;;;;;;;;6199224;23;20171;-88
2022/09/12 08:40:45;;;;;;;21.10;13.38;;;;;;;;;;6200777;23;20176;-88
2022/09/12 08:47:19;;;;;;;15.77;9.48;;;;;;;;;;6201699;23;20183;-91
2022/09/12 08:50:25;;;;;;;16.20;9.43;;;;;;;;;;6179971;23;20512;-92
2022/09/12 08:53:42;;;;;;;15.23;8.70;;;;;;;;;;6198255;23;20256;-90
2022/09/12 08:56:47;;;;;;;16.02;9.40;;;;;;;;;;6198706;23;20658;-89
2022/09/12 08:59:53;;;;;;;13.85;9.07;;;;;;;;;;6196649;23;20171;-90
2022/09/12 09:03:16;;;;;;;12.93;8.43;;;;;;;;;;6197788;23;20168;-90
2022/09/12 09:06:36;;;;;;;16.92;10.00;;;;;;;;;;6178307;23;20220;-91
2022/09/12 09:09:47;;;;;;;15.27;8.38;;;;;;;;;;6178914;23;20188;-90
2022/09/12 09:12:55;;;;;;;15.00;8.05;;;;;;;;;;6178911;23;20233;-92
2022/09/12 09:16:02;;;;;;;16.33;9.23;;;;;;;;;;6195723;23;20163;-91
2022/09/12 09:19:13;;;;;;;14.38;7.90;;;;;;;;;;6201656;23;20199;-91
2022/09/12 09:22:34;;;;;;;13.05;7.70;;;;;;;;;;6200919;23;20501;-90
2022/09/12 09:25:45;;;;;;;14.20;7.45;;;;;;;;;;6186042;23;20171;-91
2022/09/12 09:28:51;;;;;;;11.50;7.50;;;;;;;;;;6199548;23;20207;-91
2022/09/12 09:31:59;;;;;;;11.02;7.43;;;;;;;;;;6200779;23;20172;-90
2022/09/12 09:35:13;;;;;;;14.38;8.15;;;;;;;;;;6200774;23;20194;-90
2022/09/12 09:38:23;;;;;;;17.83;11.18;;;;;;;;;;6199803;23;20175;-92
2022/09/12 09:41:38;;;;;;;11.25;6.88;;;;;;;;;;6199305;23;20168;-90
2022/09/12 09:44:45;;;;;;;10.25;6.82;;;;;;;;;;6199876;23;20170;-88
2022/09/12 09:48:00;;;;;;;14.23;7.10;;;;;;;;;;6196907;23;20167;-90
2022/09/12 09:51:06;;;;;;;10.23;6.03;;;;;;;;;;6181259;23;20163;-92
2022/09/12 09:54:17;;;;;;;8.52;6.10;;;;;;;;;;6199932;23;20195;-92
2022/09/12 09:57:44;;;;;;;7.68;5.68;;;;;;;;;;6198248;23;20274;-90
2022/09/12 10:00:49;;;;;;;8.07;5.97;;;;;;;;;;6198421;23;20208;-91
2022/09/12 10:03:55;;;;;;;9.20;6.15;;;;;;;;;;6198917;23;20195;-89
2022/09/12 10:07:01;;;;;;;9.90;6.13;;;;;;;;;;6198764;23;20237;-89
2022/09/12 10:10:15;;;;;;;9.52;6.53;;;;;;;;;;6199891;23;20402;-91
2022/09/12 10:13:24;;;;;;;10.00;5.72;;;;;;;;;;6199232;23;20167;-91
2022/09/12 10:16:30;;;;;;;8.75;5.78;;;;;;;;;;6198303;23;20167;-89
2022/09/12 10:19:37;;;;;;;11.13;5.68;;;;;;;;;;6180656;23;20163;-89
2022/09/12 10:22:47;;;;;;;7.97;5.20;;;;;;;;;;6199568;23;20168;-88
2022/09/12 10:25:55;;;;;;;9.23;5.50;;;;;;;;;;6199210;23;20176;-91
2022/09/12 10:29:04;;;;;;;7.72;5.40;;;;;;;;;;6181130;23;20503;-91
2022/09/12 10:32:11;;;;;;;6.82;4.70;;;;;;;;;;6196929;23;20167;-91
2022/09/12 10:35:18;;;;;;;8.07;5.07;;;;;;;;;;6197014;23;20195;-90
2022/09/12 10:38:26;;;;;;;12.05;4.75;;;;;;;;;;6198390;23;20303;-91
2022/09/12 10:41:36;;;;;;;5.30;4.43;;;;;;;;;;6198316;23;20171;-91
2022/09/12 10:44:53;;;;;;;6.93;4.63;;;;;;;;;;6198067;23;20167;-90
2022/09/12 10:47:59;;;;;;;7.72;5.95;;;;;;;;;;6195277;23;20160;-91
2022/09/12 10:51:04;;;;;;;4.88;3.83;;;;;;;;;;6196486;23;20245;-91
2022/09/12 10:54:11;;;;;;;4.80;3.47;;;;;;;;;;6195339;23;20187;-91
2022/09/12 10:57:23;;;;;;;7.32;3.85;;;;;;;;;;6196204;23;20179;-93
2022/09/12 11:00:31;;;;;;;8.68;4.38;;;;;;;;;;6196894;23;20176;-91
2022/09/12 11:03:42;;;;;;;6.78;3.97;;;;;;;;;;6195278;23;20183;-90
2022/09/12 11:06:52;;;;;;;6.22;4.00;;;;;;;;;;6196689;23;20180;-91
2022/09/12 11:10:03;;;;;;;7.60;3.90;;;;;;;;;;6196888;23;20171;-89
2022/09/12 11:13:14;;;;;;;4.20;3.20;;;;;;;;;;6196464;23;20242;-94
2022/09/12 11:16:29;;;;;;;5.22;3.70;;;;;;;;;;6179517;23;20211;-91
2022/09/12 11:19:46;;;;;;;4.35;2.80;;;;;;;;;;6200204;23;20167;-91
2022/09/12 11:23:03;;;;;;;3.60;2.78;;;;;;;;;;6179697;23;20236;-92
2022/09/12 11:26:15;;;;;;;3.55;2.75;;;;;;;;;;6199238;23;20194;-91
2022/09/12 11:29:32;;;;;;;3.33;2.50;;;;;;;;;;6199690;23;20238;-92
2022/09/12 11:32:50;;;;;;;2.60;1.90;;;;;;;;;;6198623;23;20171;-90
2022/09/12 11:35:56;;;;;;;6.15;2.65;;;;;;;;;;6200519;23;20199;-92
2022/09/12 11:39:12;;;;;;;2.35;1.95;;;;;;;;;;6201748;23;20171;-92
2022/09/12 11:42:18;;;;;;;2.50;1.80;;;;;;;;;;6198874;23;20191;-92
2022/09/12 11:45:26;;;;;;;4.57;2.28;;;;;;;;;;6198432;23;20174;-91
2022/09/12 11:48:54;;;;;;;3.97;2.45;;;;;;;;;;6199800;23;20220;-92
2022/09/12 11:52:02;;;;;;;4.40;2.33;;;;;;;;;;6200378;23;20170;-91
2022/09/12 11:58:32;;;;;;;4.03;2.47;;;;;;;;;;6197290;23;20168;-93
2022/09/12 12:01:44;;;;;;;2.97;2.08;;;;;;;;;;6181107;23;20159;-92
2022/09/12 12:04:56;;;;;;;4.40;2.50;;;;;;;;;;6197125;23;20314;-91
2022/09/12 12:08:03;;;;;;;3.25;2.60;;;;;;;;;;6181169;23;20167;-93
2022/09/12 12:11:08;;;;;;;3.45;2.40;;;;;;;;;;6198750;23;20186;-91
2022/09/12 12:14:16;;;;;;;4.60;2.50;;;;;;;;;;6197283;23;20167;-91
2022/09/12 12:17:22;;;;;;;3.90;2.55;;;;;;;;;;6199168;23;20167;-92
2022/09/12 12:20:30;;;;;;;6.47;2.70;;;;;;;;;;6198071;23;20175;-91
2022/09/12 12:23:36;;;;;;;3.75;3.00;;;;;;;;;;6199934;23;20250;-92
2022/09/12 12:26:43;;;;;;;5.93;3.05;;;;;;;;;;6182474;23;20163;-93
2022/09/12 12:29:48;;;;;;;4.30;3.38;;;;;;;;;;6199362;23;20638;-92
2022/09/12 12:32:59;;;;;;;8.88;3.45;;;;;;;;;;6197721;23;20611;-93
2022/09/12 12:36:08;;;;;;;6.78;3.58;;;;;;;;;;6200533;23;20195;-93
2022/09/12 12:39:48;;;;;;;4.95;3.08;;;;;;;;;;6184230;23;20172;-93
2022/09/12 12:43:05;;;;;;;4.65;3.03;;;;;;;;;;6197015;23;20503;-93
2022/09/12 12:46:13;;;;;;;3.30;2.80;;;;;;;;;;6199600;23;20244;-88
2022/09/12 12:49:45;;;;;;;4.40;2.85;;;;;;;;;;6197466;23;20206;-92
2022/09/12 12:52:52;;;;;;;3.78;3.15;;;;;;;;;;6197775;23;20472;-91
2022/09/12 12:56:00;;;;;;;4.03;2.67;;;;;;;;;;6199563;23;20198;-91
2022/09/12 12:59:07;;;;;;;3.55;2.15;;;;;;;;;;6183003;23;20170;-93
2022/09/12 13:02:18;;;;;;;3.97;2.60;;;;;;;;;;6198219;23;20151;-91
2022/09/12 13:05:25;;;;;;;3.45;2.42;;;;;;;;;;6200647;23;20187;-92
2022/09/12 13:08:33;;;;;;;3.78;2.53;;;;;;;;;;6197703;23;20490;-92
2022/09/12 13:11:39;;;;;;;4.60;2.30;;;;;;;;;;6197848;23;20167;-92
2022/09/12 13:14:52;;;;;;;5.10;3.08;;;;;;;;;;6200095;23;20240;-91
2022/09/12 13:17:59;;;;;;;3.75;2.65;;;;;;;;;;6199437;23;20156;-90
2022/09/12 13:21:10;;;;;;;4.28;2.40;;;;;;;;;;6199995;23;20214;-92
2022/09/12 13:24:18;;;;;;;3.13;2.00;;;;;;;;;;6197553;23;20279;-93
2022/09/12 13:27:25;;;;;;;3.60;2.72;;;;;;;;;;6199333;23;20155;-91
2022/09/12 13:30:33;;;;;;;4.53;1.98;;;;;;;;;;6200054;23;20158;-91
2022/09/12 13:33:40;;;;;;;3.35;2.75;;;;;;;;;;6199969;23;20179;-90
2022/09/12 13:36:55;;;;;;;3.78;2.83;;;;;;;;;;6201513;23;20529;-92
2022/09/12 13:40:06;;;;;;;2.55;2.10;;;;;;;;;;6199596;23;20228;-90
2022/09/12 13:43:15;;;;;;;5.07;2.38;;;;;;;;;;6184370;23;20623;-90
2022/09/12 13:46:23;;;;;;;4.40;2.03;;;;;;;;;;6201288;23;20170;-90
2022/09/12 13:49:33;;;;;;;4.93;3.55;;;;;;;;;;6201796;23;20619;-90
2022/09/12 13:52:40;;;;;;;4.55;1.92;;;;;;;;;;6202181;23;20211;-90
2022/09/12 13:55:49;;;;;;;3.67;2.20;;;;;;;;;;6201357;23;20191;-91
2022/09/12 13:58:55;;;;;;;3.28;2.17;;;;;;;;;;6201884;23;20167;-90
2022/09/12 14:02:08;;;;;;;3.78;2.50;;;;;;;;;;6200869;23;20171;-92
2022/09/12 14:05:20;;;;;;;4.13;2.10;;;;;;;;;;6202821;23;20238;-91
2022/09/12 14:08:29;;;;;;;5.95;1.98;;;;;;;;;;6187257;23;20661;-90
2022/09/12 14:11:38;;;;;;;4.18;2.70;;;;;;;;;;6203167;23;20168;-91
2022/09/12 14:14:47;;;;;;;3.17;2.45;;;;;;;;;;6203050;23;20162;-91
2022/09/12 14:18:02;;;;;;;3.03;1.90;;;;;;;;;;6202161;23;20207;-88
2022/09/12 14:21:11;;;;;;;2.20;1.98;;;;;;;;;;6203170;23;20163;-90
2022/09/12 14:24:16;;;;;;;2.45;1.77;;;;;;;;;;6199575;23;20183;-91
2022/09/12 14:27:27;;;;;;;4.78;2.60;;;;;;;;;;6205332;23;20154;-89
2022/09/12 14:30:33;;;;;;;3.03;2.15;;;;;;;;;;6201780;23;20168;-90
2022/09/12 14:33:47;;;;;;;2.80;2.20;;;;;;;;;;6203367;23;20167;-88
2022/09/12 14:36:54;;;;;;;3.58;2.50;;;;;;;;;;6201591;23;20190;-90
2022/09/12 14:40:00;;;;;;;4.05;2.67;;;;;;;;;;6203907;23;20168;-89
2022/09/12 14:43:06;;;;;;;5.85;2.17;;;;;;;;;;6202666;23;20167;-89
2022/09/12 14:46:17;;;;;;;3.63;2.00;;;;;;;;;;6202682;23;20187;-93
2022/09/12 14:53:48;;;;;;;2.35;2.08;;;;;;;;;;6200565;23;20200;-90
2022/09/12 14:56:55;;;;;;;4.07;2.30;;;;;;;;;;6199938;23;20199;-90
2022/09/12 15:00:22;;;;;;;4.70;1.80;;;;;;;;;;6183169;23;20167;-90
2022/09/12 15:03:30;;;;;;;3.67;2.30;;;;;;;;;;6197633;23;20168;-90
2022/09/12 15:06:39;;;;;;;4.97;2.90;;;;;;;;;;6201080;23;20240;-89
2022/09/12 15:09:45;;;;;;;3.25;2.30;;;;;;;;;;6200879;23;20485;-91
2022/09/12 15:12:51;;;;;;;2.58;2.00;;;;;;;;;;6182821;23;20184;-88
2022/09/12 15:15:58;;;;;;;3.58;2.13;;;;;;;;;;6198630;23;20192;-89
2022/09/12 15:19:04;;;;;;;2.80;2.20;;;;;;;;;;6197430;23;20172;-89
2022/09/12 15:22:11;;;;;;;5.72;3.28;;;;;;;;;;6194952;23;20160;-87
2022/09/12 15:25:17;;;;;;;3.70;2.28;;;;;;;;;;6195687;23;20171;-87
2022/09/12 15:28:23;;;;;;;4.20;2.55;;;;;;;;;;6199478;23;20171;-88
2022/09/12 15:31:30;;;;;;;7.32;4.75;;;;;;;;;;6199604;23;20272;-89
2022/09/12 15:34:35;;;;;;;5.15;2.17;;;;;;;;;;6197303;23;20230;-87
2022/09/12 15:37:41;;;;;;;3.70;2.42;;;;;;;;;;6182264;23;20266;-87
2022/09/12 15:41:14;;;;;;;2.90;2.33;;;;;;;;;;6198810;23;20191;-87
2022/09/12 15:44:19;;;;;;;3.10;2.25;;;;;;;;;;6197297;23;20713;-89
2022/09/12 15:51:18;;;;;;;3.33;2.10;;;;;;;;;;6198456;23;20258;-89
2022/09/12 15:54:23;;;;;;;5.10;2.33;;;;;;;;;;6198237;23;20207;-88
2022/09/12 15:57:28;;;;;;;5.90;2.40;;;;;;;;;;6199267;23;20626;-88
2022/09/12 16:00:33;;;;;;;5.30;2.60;;;;;;;;;;6197655;23;20151;-88
2022/09/12 16:03:39;;;;;;;8.45;3.55;;;;;;;;;;6197244;23;20219;-90
2022/09/12 16:06:45;;;;;;;4.28;2.63;;;;;;;;;;6197680;23;20172;-91
2022/09/12 16:09:50;;;;;;;4.00;2.75;;;;;;;;;;6182013;23;20168;-90
2022/09/12 16:12:55;;;;;;;4.10;2.72;;;;;;;;;;6198101;23;20287;-88
2022/09/12 16:16:01;;;;;;;4.05;2.92;;;;;;;;;;6197101;23;20196;-89
2022/09/12 16:19:08;;;;;;;4.03;2.72;;;;;;;;;;6197077;23;20171;-89
2022/09/12 16:22:14;;;;;;;4.43;2.75;;;;;;;;;;6197477;23;20295;-88
2022/09/12 16:25:19;;;;;;;4.80;2.67;;;;;;;;;;6197654;23;20175;-89
2022/09/12 16:28:25;;;;;;;4.47;2.92;;;;;;;;;;6198093;23;20229;-90
2022/09/12 16:31:30;;;;;;;8.15;3.35;;;;;;;;;;6196977;23;20167;-89
2022/09/12 16:34:35;;;;;;;5.55;3.10;;;;;;;;;;6196795;23;20208;-90
2022/09/12 16:37:42;;;;;;;4.78;3.15;;;;;;;;;;6197229;23;20196;-89
2022/09/12 16:40:47;;;;;;;5.72;2.90;;;;;;;;;;6180402;23;20495;-89
2022/09/12 16:43:52;;;;;;;6.70;4.43;;;;;;;;;;6196346;23;20172;-89
2022/09/12 16:47:01;;;;;;;7.35;4.10;;;;;;;;;;6194022;23;20171;-90
2022/09/12 16:50:07;;;;;;;7.88;3.92;;;;;;;;;;6178042;23;20212;-88
2022/09/12 16:53:14;;;;;;;7.18;3.95;;;;;;;;;;6198041;23;20220;-91
2022/09/12 16:56:19;;;;;;;7.15;3.83;;;;;;;;;;6197567;23;20200;-90
2022/09/12 16:59:24;;;;;;;6.22;3.28;;;;;;;;;;6198176;23;20171;-90
2022/09/12 17:02:29;;;;;;;5.63;3.78;;;;;;;;;;6198099;23;20627;-90
2022/09/12 17:05:35;;;;;;;5.57;3.75;;;;;;;;;;6194497;23;20183;-89
2022/09/12 17:08:43;;;;;;;8.85;3.67;;;;;;;;;;6199235;23;20188;-90
2022/09/12 17:11:49;;;;;;;6.55;3.20;;;;;;;;;;6196259;23;20643;-89
2022/09/12 17:14:53;;;;;;;5.22;3.40;;;;;;;;;;6177874;23;20167;-89
2022/09/12 17:17:58;;;;;;;5.55;3.60;;;;;;;;;;6197283;23;20196;-89
2022/09/12 17:21:03;;;;;;;7.38;3.80;;;;;;;;;;6193442;23;20163;-88
2022/09/12 17:24:10;;;;;;;8.57;3.47;;;;;;;;;;6195563;23;20224;-89
2022/09/12 17:27:15;;;;;;;7.85;4.00;;;;;;;;;;6195761;23;20175;-91
2022/09/12 17:30:20;;;;;;;8.68;5.70;;;;;;;;;;6202324;23;20236;-89
2022/09/12 17:33:26;;;;;;;7.20;3.83;;;;;;;;;;6199065;23;20219;-90
2022/09/12 17:36:32;;;;;;;5.97;3.85;;;;;;;;;;6179320;23;20236;-88
2022/09/12 17:39:39;;;;;;;4.72;3.65;;;;;;;;;;6197800;23;20159;-90
2022/09/12 17:42:45;;;;;;;11.13;3.92;;;;;;;;;;6182556;23;20203;-90
2022/09/12 17:45:56;;;;;;;7.47;4.07;;;;;;;;;;6181901;23;20572;-90
2022/09/12 17:49:02;;;;;;;7.70;3.92;;;;;;;;;;6198477;23;20221;-90
2022/09/12 17:52:07;;;;;;;6.45;4.03;;;;;;;;;;6199162;23;20176;-90
2022/09/12 17:55:14;;;;;;;6.40;4.15;;;;;;;;;;6196374;23;20167;-91
2022/09/12 17:58:19;;;;;;;7.60;3.90;;;;;;;;;;6196487;23;20184;-91
2022/09/12 18:04:48;;;;;;;7.88;3.78;;;;;;;;;;6199601;23;20724;-91
2022/09/12 18:07:53;;;;;;;8.18;4.30;;;;;;;;;;6202301;23;20167;-90
2022/09/12 18:11:05;;;;;;;9.13;4.00;;;;;;;;;;6196854;23;20172;-90
2022/09/12 18:14:10;;;;;;;6.47;3.63;;;;;;;;;;6196461;23;20168;-90
2022/09/12 18:17:15;;;;;;;8.27;4.45;;;;;;;;;;6179811;23;20207;-90
2022/09/12 18:20:21;;;;;;;11.68;5.00;;;;;;;;;;6196927;23;20179;-89
2022/09/12 18:23:26;;;;;;;12.45;5.53;;;;;;;;;;6181100;23;20591;-90
2022/09/12 18:26:34;;;;;;;20.90;8.88;;;;;;;;;;6180867;23;20192;-89
2022/09/12 18:29:39;;;;;;;10.70;4.40;;;;;;;;;;6199271;23;20168;-88
2022/09/12 18:32:44;;;;;;;5.93;4.13;;;;;;;;;;6199598;23;20163;-90
2022/09/12 18:35:50;;;;;;;8.32;5.10;;;;;;;;;;6199552;23;20187;-87
2022/09/12 18:38:55;;;;;;;8.52;5.03;;;;;;;;;;6182191;23;20156;-87
2022/09/12 18:42:02;;;;;;;8.40;4.80;;;;;;;;;;6199442;23;20195;-90
2022/09/12 18:45:08;;;;;;;10.75;5.20;;;;;;;;;;6203158;23;20152;-87
2022/09/12 18:48:16;;;;;;;9.07;5.10;;;;;;;;;;6184400;23;20167;-90
2022/09/12 18:51:24;;;;;;;9.68;5.43;;;;;;;;;;6200844;23;20630;-90
2022/09/12 20:53:15;;;;;;;13.68;7.22;;;;;;;;;;6182257;22;20532;-88